sensor_id;sensor_type;location;lat;lon;timestamp;pressure;altitude;pressure_sealevel;temperature;humidity
13765;BME280;6953;48.810;9.204;2023-02-05T00:01:56;100542.53;;;4.18;100.00
13765;BME280;6953;48.810;9.204;2023-02-05T00:04:21;100852.28;;;5.69;99.75
13765;BME280;6953;48.810;9.204;2023-02-05T00:06:47;100539.94;;;4.19;99.30
13765;BME280;6953;48.810;9.204;2023-02-05T00:09:13;100588.50;;;4.46;99.46
13765;BME280;6953;48.810;9.204;2023-02-05T00:11:39;100574.59;;;4.39;99.52
13765;BME280;6953;48.810;9.204;2023-02-05T00:14:04;100843.59;;;5.76;99.63
13765;BME280;6953;48.810;9.204;2023-02-05T00:16:29;100805.44;;;5.78;100.00
13765;BME280;6953;48.810;9.204;2023-02-05T00:18:55;100806.31;;;5.81;99.35
13765;BME280;6953;48.810;9.204;2023-02-05T00:21:22;100615.41;;;4.81;99.39
13765;BME280;6953;48.810;9.204;2023-02-05T00:23:48;100810.66;;;5.85;99.71
13765;BME280;6953;48.810;9.204;2023-02-05T00:26:13;100758.50;;;5.63;98.83
13765;BME280;6953;48.810;9.204;2023-02-05T00:28:39;100807.16;;;5.80;98.79
13765;BME280;6953;48.810;9.204;2023-02-05T00:31:13;100696.06;;;5.36;98.52
13765;BME280;6953;48.810;9.204;2023-02-05T00:33:39;100528.72;;;4.44;98.65
13765;BME280;6953;48.810;9.204;2023-02-05T00:36:05;100527.88;;;4.48;98.79
13765;BME280;6953;48.810;9.204;2023-02-05T00:38:30;100781.13;;;5.91;98.97
13765;BME280;6953;48.810;9.204;2023-02-05T00:40:56;100703.00;;;5.43;98.76
13765;BME280;6953;48.810;9.204;2023-02-05T00:43:21;100781.97;;;5.87;98.63
13765;BME280;6953;48.810;9.204;2023-02-05T00:45:47;100818.47;;;5.90;98.80
13765;BME280;6953;48.810;9.204;2023-02-05T00:48:12;100819.34;;;5.90;98.73
13765;BME280;6953;48.810;9.204;2023-02-05T00:50:37;100494.94;;;4.22;97.84
13765;BME280;6953;48.810;9.204;2023-02-05T00:53:03;100777.66;;;5.81;98.43
13765;BME280;6953;48.810;9.204;2023-02-05T00:55:28;100799.34;;;5.91;98.99
13765;BME280;6953;48.810;9.204;2023-02-05T00:57:53;100526.09;;;4.38;98.23
13765;BME280;6953;48.810;9.204;2023-02-05T01:00:19;100788.06;;;5.93;98.26
13765;BME280;6953;48.810;9.204;2023-02-05T01:02:45;100745.53;;;5.70;98.16
13765;BME280;6953;48.810;9.204;2023-02-05T01:05:10;100729.91;;;5.61;97.94
13765;BME280;6953;48.810;9.204;2023-02-05T01:07:36;100753.34;;;5.79;97.99
13765;BME280;6953;48.810;9.204;2023-02-05T01:10:01;100490.59;;;4.28;97.76
13765;BME280;6953;48.810;9.204;2023-02-05T01:12:26;100770.69;;;5.92;97.64
13765;BME280;6953;48.810;9.204;2023-02-05T01:14:52;100812.38;;;5.92;97.42
13765;BME280;6953;48.810;9.204;2023-02-05T01:17:18;100781.97;;;5.91;98.12
13765;BME280;6953;48.810;9.204;2023-02-05T01:19:44;100771.56;;;5.90;97.59
13765;BME280;6953;48.810;9.204;2023-02-05T01:22:09;100768.97;;;5.87;97.92
13765;BME280;6953;48.810;9.204;2023-02-05T01:24:36;100768.97;;;5.88;97.00
13765;BME280;6953;48.810;9.204;2023-02-05T01:27:02;100760.28;;;5.86;97.01
13765;BME280;6953;48.810;9.204;2023-02-05T01:29:28;100696.06;;;5.46;97.19
13765;BME280;6953;48.810;9.204;2023-02-05T01:31:54;100762.88;;;5.82;97.57
13765;BME280;6953;48.810;9.204;2023-02-05T01:34:19;100554.72;;;4.56;97.31
13765;BME280;6953;48.810;9.204;2023-02-05T01:36:45;100481.94;;;4.13;97.67
13765;BME280;6953;48.810;9.204;2023-02-05T01:39:10;100764.63;;;5.69;97.66
13765;BME280;6953;48.810;9.204;2023-02-05T01:41:36;100726.44;;;5.44;98.03
13765;BME280;6953;48.810;9.204;2023-02-05T01:44:12;100487.13;;;4.14;97.83
13765;BME280;6953;48.810;9.204;2023-02-05T01:46:43;100770.69;;;5.68;98.62
13765;BME280;6953;48.810;9.204;2023-02-05T01:49:14;100484.53;;;4.16;98.15
13765;BME280;6953;48.810;9.204;2023-02-05T01:51:40;100737.69;;;5.61;97.46
13765;BME280;6953;48.810;9.204;2023-02-05T01:54:07;100738.56;;;5.57;97.68
13765;BME280;6953;48.810;9.204;2023-02-05T01:56:39;100455.94;;;3.95;97.74
13765;BME280;6953;48.810;9.204;2023-02-05T01:59:13;100715.16;;;5.42;97.97
13765;BME280;6953;48.810;9.204;2023-02-05T02:01:40;100725.56;;;5.48;98.20
13765;BME280;6953;48.810;9.204;2023-02-05T02:04:07;100739.44;;;5.56;98.54
13765;BME280;6953;48.810;9.204;2023-02-05T02:06:34;100722.09;;;5.57;98.86
13765;BME280;6953;48.810;9.204;2023-02-05T02:09:01;100624.06;;;4.98;98.63
13765;BME280;6953;48.810;9.204;2023-02-05T02:11:29;100636.22;;;5.06;98.91
13765;BME280;6953;48.810;9.204;2023-02-05T02:13:57;100714.28;;;5.33;99.08
13765;BME280;6953;48.810;9.204;2023-02-05T02:16:25;100450.78;;;4.04;98.02
13765;BME280;6953;48.810;9.204;2023-02-05T02:18:52;100722.06;;;5.42;98.91
13765;BME280;6953;48.810;9.204;2023-02-05T02:21:37;100507.06;;;4.38;98.40
13765;BME280;6953;48.810;9.204;2023-02-05T02:24:30;100706.47;;;5.51;97.59
13765;BME280;6953;48.810;9.204;2023-02-05T02:27:11;100740.31;;;5.49;97.63
13765;BME280;6953;48.810;9.204;2023-02-05T02:29:55;100665.69;;;5.30;97.28
13765;BME280;6953;48.810;9.204;2023-02-05T02:32:32;100469.81;;;4.07;97.73
13765;BME280;6953;48.810;9.204;2023-02-05T02:35:05;100614.56;;;4.95;97.43
13765;BME280;6953;48.810;9.204;2023-02-05T02:37:40;100618.00;;;4.91;97.76
13765;BME280;6953;48.810;9.204;2023-02-05T02:40:17;100705.59;;;5.41;97.19
13765;BME280;6953;48.810;9.204;2023-02-05T02:42:51;100690.88;;;5.39;97.44
13765;BME280;6953;48.810;9.204;2023-02-05T02:45:21;100694.31;;;5.47;96.76
13765;BME280;6953;48.810;9.204;2023-02-05T02:47:55;100449.91;;;4.07;97.11
13765;BME280;6953;48.810;9.204;2023-02-05T02:50:26;100693.44;;;5.52;97.22
13765;BME280;6953;48.810;9.204;2023-02-05T02:53:00;100632.75;;;5.20;97.73
13765;BME280;6953;48.810;9.204;2023-02-05T02:55:28;100652.69;;;5.33;96.94
13765;BME280;6953;48.810;9.204;2023-02-05T02:57:57;100693.47;;;5.39;96.69
13765;BME280;6953;48.810;9.204;2023-02-05T03:00:25;100676.97;;;5.46;97.23
13765;BME280;6953;48.810;9.204;2023-02-05T03:02:56;100692.56;;;5.46;97.20
13765;BME280;6953;48.810;9.204;2023-02-05T03:05:25;100680.44;;;5.45;97.56
13765;BME280;6953;48.810;9.204;2023-02-05T03:07:55;100676.97;;;5.46;97.23
13765;BME280;6953;48.810;9.204;2023-02-05T03:10:34;100674.38;;;5.44;97.41
13765;BME280;6953;48.810;9.204;2023-02-05T03:13:00;100676.97;;;5.43;97.35
13765;BME280;6953;48.810;9.204;2023-02-05T03:15:26;100696.06;;;5.36;97.02
13765;BME280;6953;48.810;9.204;2023-02-05T03:17:53;100436.91;;;4.07;97.17
13765;BME280;6953;48.810;9.204;2023-02-05T03:20:31;100688.22;;;5.52;97.43
13765;BME280;6953;48.810;9.204;2023-02-05T03:22:57;100673.50;;;5.47;97.27
13765;BME280;6953;48.810;9.204;2023-02-05T03:25:24;100682.16;;;5.53;97.30
13765;BME280;6953;48.810;9.204;2023-02-05T03:27:52;100680.44;;;5.54;97.52
13765;BME280;6953;48.810;9.204;2023-02-05T03:30:20;100673.50;;;5.56;97.77
13765;BME280;6953;48.810;9.204;2023-02-05T03:33:16;100481.97;;;4.53;97.34
13765;BME280;6953;48.810;9.204;2023-02-05T03:36:02;100676.09;;;5.66;97.28
13765;BME280;6953;48.810;9.204;2023-02-05T03:38:57;100661.31;;;5.61;96.86
13765;BME280;6953;48.810;9.204;2023-02-05T03:44:27;100654.41;;;5.34;97.52
13765;BME280;6953;48.810;9.204;2023-02-05T03:49:51;100649.22;;;4.99;98.93
13765;BME280;6953;48.810;9.204;2023-02-05T03:52:23;100510.47;;;4.03;100.00
13765;BME280;6953;48.810;9.204;2023-02-05T03:57:36;100654.31;;;4.51;100.00
13765;BME280;6953;48.810;9.204;2023-02-05T04:00:04;100647.38;;;4.38;100.00
13765;BME280;6953;48.810;9.204;2023-02-05T04:02:30;100646.47;;;4.33;100.00
13765;BME280;6953;48.810;9.204;2023-02-05T04:04:55;100440.09;;;3.16;100.00
13765;BME280;6953;48.810;9.204;2023-02-05T04:07:20;100630.00;;;4.20;100.00
13765;BME280;6953;48.810;9.204;2023-02-05T04:09:46;100630.81;;;4.12;100.00
13765;BME280;6953;48.810;9.204;2023-02-05T04:12:11;100661.09;;;4.06;100.00
13765;BME280;6953;48.810;9.204;2023-02-05T04:14:37;100633.41;;;4.03;100.00
13765;BME280;6953;48.810;9.204;2023-02-05T04:17:02;100466.84;;;3.02;100.00
13765;BME280;6953;48.810;9.204;2023-02-05T04:19:27;100524.94;;;3.35;100.00
13765;BME280;6953;48.810;9.204;2023-02-05T04:21:53;100361.97;;;2.37;100.00
13765;BME280;6953;48.810;9.204;2023-02-05T04:24:18;100625.53;;;3.88;100.00
13765;BME280;6953;48.810;9.204;2023-02-05T04:26:43;100582.16;;;3.63;100.00
13765;BME280;6953;48.810;9.204;2023-02-05T04:29:09;100664.47;;;3.88;100.00
13765;BME280;6953;48.810;9.204;2023-02-05T04:31:34;100352.38;;;2.25;100.00
13765;BME280;6953;48.810;9.204;2023-02-05T04:33:59;100634.16;;;3.78;100.00
13765;BME280;6953;48.810;9.204;2023-02-05T04:36:25;100629.81;;;3.77;100.00
13765;BME280;6953;48.810;9.204;2023-02-05T04:38:50;100548.22;;;3.23;100.00
13765;BME280;6953;48.810;9.204;2023-02-05T04:41:16;100628.88;;;3.69;100.00
13765;BME280;6953;48.810;9.204;2023-02-05T04:43:41;100632.34;;;3.68;100.00
13765;BME280;6953;48.810;9.204;2023-02-05T04:46:10;100646.16;;;3.61;100.00
13765;BME280;6953;48.810;9.204;2023-02-05T04:48:36;100640.94;;;3.54;100.00
13765;BME280;6953;48.810;9.204;2023-02-05T04:51:09;100640.97;;;3.61;100.00
13765;BME280;6953;48.810;9.204;2023-02-05T04:53:35;100686.78;;;3.61;100.00
13765;BME280;6953;48.810;9.204;2023-02-05T04:56:19;100360.84;;;2.05;100.00
13765;BME280;6953;48.810;9.204;2023-02-05T04:58:44;100627.09;;;3.55;100.00
13765;BME280;6953;48.810;9.204;2023-02-05T05:01:20;100650.50;;;3.64;100.00
13765;BME280;6953;48.810;9.204;2023-02-05T05:03:47;100667.81;;;3.63;100.00
13765;BME280;6953;48.810;9.204;2023-02-05T05:06:13;100410.34;;;2.41;100.00
13765;BME280;6953;48.810;9.204;2023-02-05T05:08:39;100333.16;;;1.91;100.00
13765;BME280;6953;48.810;9.204;2023-02-05T05:11:10;100637.59;;;3.76;100.00
13765;BME280;6953;48.810;9.204;2023-02-05T05:13:37;100622.81;;;3.67;100.00
13765;BME280;6953;48.810;9.204;2023-02-05T05:16:03;100677.47;;;3.90;100.00
13765;BME280;6953;48.810;9.204;2023-02-05T05:18:29;100653.28;;;4.00;100.00
13765;BME280;6953;48.810;9.204;2023-02-05T05:20:54;100656.78;;;4.12;100.00
13765;BME280;6953;48.810;9.204;2023-02-05T05:23:19;100379.41;;;2.68;100.00
13765;BME280;6953;48.810;9.204;2023-02-05T05:25:46;100648.25;;;4.35;100.00
13765;BME280;6953;48.810;9.204;2023-02-05T05:28:12;100655.16;;;4.42;100.00
13765;BME280;6953;48.810;9.204;2023-02-05T05:30:38;100654.34;;;4.54;100.00
13765;BME280;6953;48.810;9.204;2023-02-05T05:33:04;100653.47;;;4.59;100.00
13765;BME280;6953;48.810;9.204;2023-02-05T05:35:30;100651.75;;;4.64;100.00
13765;BME280;6953;48.810;9.204;2023-02-05T05:37:56;100385.69;;;3.17;100.00
13765;BME280;6953;48.810;9.204;2023-02-05T05:40:21;100653.53;;;4.76;100.00
13765;BME280;6953;48.810;9.204;2023-02-05T05:43:10;100390.06;;;3.32;100.00
13765;BME280;6953;48.810;9.204;2023-02-05T05:45:54;100676.94;;;4.85;100.00
13765;BME280;6953;48.810;9.204;2023-02-05T05:48:19;100298.28;;;2.82;100.00
13765;BME280;6953;48.810;9.204;2023-02-05T05:50:45;100648.34;;;4.88;100.00
13765;BME280;6953;48.810;9.204;2023-02-05T05:53:10;100655.28;;;4.92;100.00
13765;BME280;6953;48.810;9.204;2023-02-05T05:55:36;100651.78;;;4.90;100.00
13765;BME280;6953;48.810;9.204;2023-02-05T05:58:01;100373.63;;;3.37;100.00
13765;BME280;6953;48.810;9.204;2023-02-05T06:00:26;100609.31;;;4.79;100.00
13765;BME280;6953;48.810;9.204;2023-02-05T06:02:52;100618.00;;;4.85;100.00
13765;BME280;6953;48.810;9.204;2023-02-05T06:05:17;100626.66;;;4.84;100.00
13765;BME280;6953;48.810;9.204;2023-02-05T06:07:42;100444.66;;;3.78;100.00
13765;BME280;6953;48.810;9.204;2023-02-05T06:10:08;100638.78;;;4.82;100.00
13765;BME280;6953;48.810;9.204;2023-02-05T06:12:33;100640.53;;;4.79;100.00
13765;BME280;6953;48.810;9.204;2023-02-05T06:14:58;100630.13;;;4.73;100.00
13765;BME280;6953;48.810;9.204;2023-02-05T06:17:24;100374.47;;;3.21;100.00
13765;BME280;6953;48.810;9.204;2023-02-05T06:19:49;100610.16;;;4.54;100.00
13765;BME280;6953;48.810;9.204;2023-02-05T06:22:14;100617.13;;;4.56;100.00
13765;BME280;6953;48.810;9.204;2023-02-05T06:24:40;100358.84;;;3.04;100.00
13765;BME280;6953;48.810;9.204;2023-02-05T06:27:05;100640.50;;;4.56;100.00
13765;BME280;6953;48.810;9.204;2023-02-05T06:29:30;100547.69;;;4.00;100.00
13765;BME280;6953;48.810;9.204;2023-02-05T06:31:56;100611.84;;;4.37;100.00
13765;BME280;6953;48.810;9.204;2023-02-05T06:34:21;100540.78;;;4.05;100.00
13765;BME280;6953;48.810;9.204;2023-02-05T06:36:46;100586.69;;;4.22;100.00
13765;BME280;6953;48.810;9.204;2023-02-05T06:39:11;100628.38;;;4.57;100.00
13765;BME280;6953;48.810;9.204;2023-02-05T06:41:37;100446.34;;;3.58;100.00
13765;BME280;6953;48.810;9.204;2023-02-05T06:44:02;100533.88;;;4.13;100.00
13765;BME280;6953;48.810;9.204;2023-02-05T06:46:28;100499.22;;;4.01;100.00
13765;BME280;6953;48.810;9.204;2023-02-05T06:48:54;100653.53;;;4.83;100.00
13765;BME280;6953;48.810;9.204;2023-02-05T06:51:19;100634.47;;;4.68;100.00
13765;BME280;6953;48.810;9.204;2023-02-05T06:53:45;100570.28;;;4.44;100.00
13765;BME280;6953;48.810;9.204;2023-02-05T06:56:10;100640.56;;;4.85;100.00
13765;BME280;6953;48.810;9.204;2023-02-05T06:58:35;100570.31;;;4.53;100.00
13765;BME280;6953;48.810;9.204;2023-02-05T07:01:01;100650.94;;;5.04;100.00
13765;BME280;6953;48.810;9.204;2023-02-05T07:03:26;100553.84;;;4.50;100.00
13765;BME280;6953;48.810;9.204;2023-02-05T07:05:52;100648.34;;;5.01;100.00
13765;BME280;6953;48.810;9.204;2023-02-05T07:08:17;100372.78;;;3.47;100.00
13765;BME280;6953;48.810;9.204;2023-02-05T07:10:43;100656.16;;;5.13;100.00
13765;BME280;6953;48.810;9.204;2023-02-05T07:13:08;100670.91;;;5.17;100.00
13765;BME280;6953;48.810;9.204;2023-02-05T07:15:37;100591.13;;;4.82;100.00
13765;BME280;6953;48.810;9.204;2023-02-05T07:18:03;100665.69;;;5.26;100.00
13765;BME280;6953;48.810;9.204;2023-02-05T07:20:30;100546.94;;;4.67;99.87
13765;BME280;6953;48.810;9.204;2023-02-05T07:22:55;100697.78;;;5.25;100.00
13765;BME280;6953;48.810;9.204;2023-02-05T07:25:20;100657.03;;;5.25;100.00
13765;BME280;6953;48.810;9.204;2023-02-05T07:27:46;100653.56;;;5.28;99.98
13765;BME280;6953;48.810;9.204;2023-02-05T07:30:12;100297.53;;;3.29;99.39
13765;BME280;6953;48.810;9.204;2023-02-05T07:32:37;100407.50;;;3.96;99.02
13765;BME280;6953;48.810;9.204;2023-02-05T07:35:03;100644.88;;;5.35;99.27
13765;BME280;6953;48.810;9.204;2023-02-05T07:37:28;100637.06;;;5.33;98.91
13765;BME280;6953;48.810;9.204;2023-02-05T07:39:53;100640.53;;;5.32;99.00
13765;BME280;6953;48.810;9.204;2023-02-05T07:42:19;100549.53;;;4.83;98.29
13765;BME280;6953;48.810;9.204;2023-02-05T07:44:44;100637.09;;;5.38;99.10
13765;BME280;6953;48.810;9.204;2023-02-05T07:47:09;100363.31;;;3.91;98.39
13765;BME280;6953;48.810;9.204;2023-02-05T07:49:34;100637.94;;;5.47;97.92
13765;BME280;6953;48.810;9.204;2023-02-05T07:52:00;100624.03;;;5.53;97.75
13765;BME280;6953;48.810;9.204;2023-02-05T07:54:25;100624.91;;;5.55;97.74
13765;BME280;6953;48.810;9.204;2023-02-05T07:56:51;100546.88;;;5.11;97.49
13765;BME280;6953;48.810;9.204;2023-02-05T07:59:16;100630.13;;;5.40;97.52
13765;BME280;6953;48.810;9.204;2023-02-05T08:01:41;100550.34;;;5.22;97.12
13765;BME280;6953;48.810;9.204;2023-02-05T08:04:07;100536.47;;;5.22;96.74
13765;BME280;6953;48.810;9.204;2023-02-05T08:06:32;100622.22;;;5.71;97.05
13765;BME280;6953;48.810;9.204;2023-02-05T08:08:58;100609.25;;;5.64;96.18
13765;BME280;6953;48.810;9.204;2023-02-05T08:11:24;100642.19;;;5.75;96.47
13765;BME280;6953;48.810;9.204;2023-02-05T08:13:49;100619.66;;;5.80;96.29
13765;BME280;6953;48.810;9.204;2023-02-05T08:16:15;100617.91;;;5.79;95.90
13765;BME280;6953;48.810;9.204;2023-02-05T08:18:40;100609.25;;;5.62;95.44
13765;BME280;6953;48.810;9.204;2023-02-05T08:21:06;100669.13;;;5.89;95.44
13765;BME280;6953;48.810;9.204;2023-02-05T08:23:31;100623.09;;;5.87;94.89
13765;BME280;6953;48.810;9.204;2023-02-05T08:25:58;100613.53;;;5.93;95.02
13765;BME280;6953;48.810;9.204;2023-02-05T08:28:25;100533.81;;;5.44;94.49
13765;BME280;6953;48.810;9.204;2023-02-05T08:30:51;100551.09;;;5.66;94.80
13765;BME280;6953;48.810;9.204;2023-02-05T08:33:16;100473.19;;;5.17;94.46
13765;BME280;6953;48.810;9.204;2023-02-05T08:35:42;100416.88;;;4.94;94.08
13765;BME280;6953;48.810;9.204;2023-02-05T08:38:07;100458.41;;;5.28;94.49
13765;BME280;6953;48.810;9.204;2023-02-05T08:40:33;100623.88;;;6.07;93.48
13765;BME280;6953;48.810;9.204;2023-02-05T08:42:58;100606.47;;;6.22;93.95
13765;BME280;6953;48.810;9.204;2023-02-05T08:45:25;100567.47;;;6.07;93.51
13765;BME280;6953;48.810;9.204;2023-02-05T08:47:51;100370.13;;;4.80;92.97
13765;BME280;6953;48.810;9.204;2023-02-05T08:50:17;100353.66;;;4.86;92.73
13765;BME280;6953;48.810;9.204;2023-02-05T08:52:43;100607.28;;;6.28;93.71
13765;BME280;6953;48.810;9.204;2023-02-05T08:55:09;100500.72;;;5.79;93.74
13765;BME280;6953;48.810;9.204;2023-02-05T08:57:35;100584.78;;;6.13;93.68
13765;BME280;6953;48.810;9.204;2023-02-05T09:00:01;100607.22;;;6.39;93.30
13765;BME280;6953;48.810;9.204;2023-02-05T09:02:26;100588.03;;;6.53;92.39
13765;BME280;6953;48.810;9.204;2023-02-05T09:04:51;100567.19;;;6.52;92.88
13765;BME280;6953;48.810;9.204;2023-02-05T09:07:17;100300.75;;;4.90;92.72
13765;BME280;6953;48.810;9.204;2023-02-05T09:09:42;100556.06;;;6.26;93.53
13765;BME280;6953;48.810;9.204;2023-02-05T09:12:08;100337.16;;;4.90;93.29
13765;BME280;6953;48.810;9.204;2023-02-05T09:14:35;100267.19;;;4.39;93.91
13765;BME280;6953;48.810;9.204;2023-02-05T09:17:03;100327.69;;;4.71;94.79
13765;BME280;6953;48.810;9.204;2023-02-05T09:19:28;100596.97;;;6.02;95.18
13765;BME280;6953;48.810;9.204;2023-02-05T09:21:56;100537.09;;;5.99;95.21
13765;BME280;6953;48.810;9.204;2023-02-05T09:24:21;100553.56;;;6.02;95.53
13765;BME280;6953;48.810;9.204;2023-02-05T09:26:47;100557.97;;;5.93;96.63
13765;BME280;6953;48.810;9.204;2023-02-05T09:29:12;100470.53;;;5.38;96.72
13765;BME280;6953;48.810;9.204;2023-02-05T09:31:39;100544.97;;;5.85;96.96
13765;BME280;6953;48.810;9.204;2023-02-05T09:34:05;100540.66;;;5.78;97.86
13765;BME280;6953;48.810;9.204;2023-02-05T09:36:30;100531.97;;;5.73;98.48
13765;BME280;6953;48.810;9.204;2023-02-05T09:38:56;100552.81;;;5.66;99.19
13765;BME280;6953;48.810;9.204;2023-02-05T09:41:58;100514.69;;;5.56;98.81
13765;BME280;6953;48.810;9.204;2023-02-05T09:47:21;100281.97;;;4.06;100.00
13765;BME280;6953;48.810;9.204;2023-02-05T09:52:19;100523.41;;;5.38;100.00
13765;BME280;6953;48.810;9.204;2023-02-05T09:54:50;100495.69;;;5.21;100.00
13765;BME280;6953;48.810;9.204;2023-02-05T09:57:28;100217.16;;;3.62;100.00
13765;BME280;6953;48.810;9.204;2023-02-05T09:59:53;100551.19;;;5.39;100.00
13765;BME280;6953;48.810;9.204;2023-02-05T10:02:38;100437.69;;;5.06;100.00
13765;BME280;6953;48.810;9.204;2023-02-05T10:05:13;100512.06;;;5.54;100.00
13765;BME280;6953;48.810;9.204;2023-02-05T10:08:17;100511.19;;;5.61;100.00
13765;BME280;6953;48.810;9.204;2023-02-05T10:10:48;100496.44;;;5.57;100.00
13765;BME280;6953;48.810;9.204;2023-02-05T10:13:30;100504.22;;;5.71;100.00
13765;BME280;6953;48.810;9.204;2023-02-05T10:19:12;100541.53;;;5.80;100.00
13765;BME280;6953;48.810;9.204;2023-02-05T10:27:19;100490.41;;;5.51;100.00
13765;BME280;6953;48.810;9.204;2023-02-05T10:30:07;100526.72;;;5.87;100.00
13765;BME280;6953;48.810;9.204;2023-02-05T10:33:02;100390.72;;;5.34;100.00
13765;BME280;6953;48.810;9.204;2023-02-05T10:35:55;100486.75;;;5.97;100.00
13765;BME280;6953;48.810;9.204;2023-02-05T10:38:26;100331.84;;;5.16;100.00
13765;BME280;6953;48.810;9.204;2023-02-05T10:40:54;100477.13;;;6.09;100.00
13765;BME280;6953;48.810;9.204;2023-02-05T10:43:29;100490.97;;;6.14;100.00
13765;BME280;6953;48.810;9.204;2023-02-05T10:45:59;100468.34;;;6.22;100.00
13765;BME280;6953;48.810;9.204;2023-02-05T10:51:16;100392.91;;;6.04;100.00
13765;BME280;6953;48.810;9.204;2023-02-05T10:53:44;100201.81;;;5.09;100.00
13765;BME280;6953;48.810;9.204;2023-02-05T10:56:19;100454.97;;;6.61;100.00
13765;BME280;6953;48.810;9.204;2023-02-05T10:58:54;100456.72;;;6.59;100.00
13765;BME280;6953;48.810;9.204;2023-02-05T11:01:22;100206.09;;;5.19;100.00
13765;BME280;6953;48.810;9.204;2023-02-05T11:04:03;100454.94;;;6.65;100.00
13765;BME280;6953;48.810;9.204;2023-02-05T11:06:48;100435.28;;;6.27;100.00
13765;BME280;6953;48.810;9.204;2023-02-05T11:11:53;100177.66;;;4.92;100.00
13765;BME280;6953;48.810;9.204;2023-02-05T11:14:23;100453.38;;;6.48;100.00
13765;BME280;6953;48.810;9.204;2023-02-05T11:16:49;100236.41;;;5.24;100.00
13765;BME280;6953;48.810;9.204;2023-02-05T11:19:22;100443.78;;;6.48;100.00
13765;BME280;6953;48.810;9.204;2023-02-05T11:21:57;100413.44;;;6.40;100.00
13765;BME280;6953;48.810;9.204;2023-02-05T11:24:28;100140.47;;;4.86;100.00
13765;BME280;6953;48.810;9.204;2023-02-05T11:29:40;100408.84;;;6.67;100.00
13765;BME280;6953;48.810;9.204;2023-02-05T11:32:31;100410.50;;;6.73;100.00
13765;BME280;6953;48.810;9.204;2023-02-05T11:35:11;100397.53;;;6.70;100.00
13765;BME280;6953;48.810;9.204;2023-02-05T11:37:40;100418.31;;;6.77;100.00
13765;BME280;6953;48.810;9.204;2023-02-05T11:40:18;100384.59;;;6.58;100.00
13765;BME280;6953;48.810;9.204;2023-02-05T11:42:47;100340.25;;;6.61;100.00
13765;BME280;6953;48.810;9.204;2023-02-05T11:45:17;100407.53;;;7.09;100.00
13765;BME280;6953;48.810;9.204;2023-02-05T11:47:46;100308.13;;;6.56;100.00
13765;BME280;6953;48.810;9.204;2023-02-05T11:50:38;100403.06;;;7.17;100.00
13765;BME280;6953;48.810;9.204;2023-02-05T11:53:13;100394.38;;;7.16;100.00
13765;BME280;6953;48.810;9.204;2023-02-05T11:55:42;100395.25;;;7.18;100.00
13765;BME280;6953;48.810;9.204;2023-02-05T12:01:01;100112.84;;;5.63;100.00
13765;BME280;6953;48.810;9.204;2023-02-05T12:03:29;100111.91;;;5.71;100.00
13765;BME280;6953;48.810;9.204;2023-02-05T12:06:06;100073.78;;;5.66;100.00
13765;BME280;6953;48.810;9.204;2023-02-05T12:13:54;100376.28;;;7.67;100.00
13765;BME280;6953;48.810;9.204;2023-02-05T12:30:25;100374.72;;;7.56;100.00
13765;BME280;6953;48.810;9.204;2023-02-05T12:36:24;100381.78;;;7.48;100.00
13765;BME280;6953;48.810;9.204;2023-02-05T12:46:48;100355.94;;;7.28;100.00
13765;BME280;6953;48.810;9.204;2023-02-05T12:55:21;100321.88;;;7.39;100.00
13765;BME280;6953;48.810;9.204;2023-02-05T12:57:55;100258.81;;;7.04;100.00
13765;BME280;6953;48.810;9.204;2023-02-05T13:00:25;100157.06;;;6.45;100.00
13765;BME280;6953;48.810;9.204;2023-02-05T13:03:20;100070.66;;;6.11;100.00
13765;BME280;6953;48.810;9.204;2023-02-05T13:05:47;100304.38;;;7.44;100.00
13765;BME280;6953;48.810;9.204;2023-02-05T13:10:53;100345.94;;;7.59;100.00
13765;BME280;6953;48.810;9.204;2023-02-05T13:13:30;100343.38;;;7.56;100.00
13765;BME280;6953;48.810;9.204;2023-02-05T13:16:05;100350.38;;;7.54;100.00
13765;BME280;6953;48.810;9.204;2023-02-05T13:18:38;100390.47;;;7.50;100.00
13765;BME280;6953;48.810;9.204;2023-02-05T13:21:07;100160.59;;;6.40;100.00
13765;BME280;6953;48.810;9.204;2023-02-05T13:24:24;100074.34;;;5.93;100.00
13765;BME280;6953;48.810;9.204;2023-02-05T13:27:17;100339.41;;;7.29;100.00
13765;BME280;6953;48.810;9.204;2023-02-05T13:30:02;100070.13;;;5.86;100.00
13765;BME280;6953;48.810;9.204;2023-02-05T13:32:31;100317.16;;;7.03;100.00
13765;BME280;6953;48.810;9.204;2023-02-05T13:34:58;100376.81;;;7.31;100.00
13765;BME280;6953;48.810;9.204;2023-02-05T13:37:37;100110.69;;;6.04;100.00
13765;BME280;6953;48.810;9.204;2023-02-05T13:48:45;100332.53;;;7.22;100.00
13765;BME280;6953;48.810;9.204;2023-02-05T13:59:37;100352.88;;;6.97;100.00
13765;BME280;6953;48.810;9.204;2023-02-05T14:02:24;100225.97;;;6.22;100.00
13765;BME280;6953;48.810;9.204;2023-02-05T14:04:53;100055.13;;;5.25;100.00
13765;BME280;6953;48.810;9.204;2023-02-05T14:07:26;100338.16;;;6.91;100.00
13765;BME280;6953;48.810;9.204;2023-02-05T14:09:57;100335.69;;;6.79;100.00
13765;BME280;6953;48.810;9.204;2023-02-05T14:12:35;100340.03;;;6.80;100.00
13765;BME280;6953;48.810;9.204;2023-02-05T14:22:54;100355.16;;;6.50;100.00
13765;BME280;6953;48.810;9.204;2023-02-05T14:28:00;100261.81;;;5.99;100.00
13765;BME280;6953;48.810;9.204;2023-02-05T14:32:59;100260.28;;;5.74;100.00
13765;BME280;6953;48.810;9.204;2023-02-05T14:37:59;100250.75;;;5.81;100.00
13765;BME280;6953;48.810;9.204;2023-02-05T14:42:55;100211.00;;;5.53;100.00
13765;BME280;6953;48.810;9.204;2023-02-05T14:45:22;100129.03;;;5.05;100.00
13765;BME280;6953;48.810;9.204;2023-02-05T14:47:51;100330.97;;;6.33;100.00
13765;BME280;6953;48.810;9.204;2023-02-05T14:50:26;100350.91;;;6.38;100.00
13765;BME280;6953;48.810;9.204;2023-02-05T14:52:56;100055.56;;;4.79;100.00
13765;BME280;6953;48.810;9.204;2023-02-05T14:55:38;100347.59;;;6.23;100.00
13765;BME280;6953;48.810;9.204;2023-02-05T14:58:23;100374.44;;;6.31;100.00
13765;BME280;6953;48.810;9.204;2023-02-05T15:03:52;100067.88;;;4.57;100.00
13765;BME280;6953;48.810;9.204;2023-02-05T15:06:26;100355.44;;;6.17;100.00
13765;BME280;6953;48.810;9.204;2023-02-05T15:09:11;100016.13;;;4.27;100.00